Time;durP1;ratioP1;P1;durP2;ratioP2;P2;SDS_P1;SDS_P2;PMS_P1;PMS_P2;Temp;Humidity;BMP_temperature;BMP_pressure;BME280_temperature;BME280_humidity;BME280_pressure;Samples;Min_cycle;Max_cycle;Signal;HPM_P1;HPM_P2
2023/07/25 00:01:21;;;;;;;22.87;4.67;;;26.50;53.30;;;;;;5046487;28;20242;-65
2023/07/25 00:03:48;;;;;;;30.33;5.60;;;26.50;53.30;;;;;;5047300;28;20201;-64
2023/07/25 00:06:15;;;;;;;23.67;4.73;;;26.60;53.40;;;;;;5047616;28;20204;-63
2023/07/25 00:08:42;;;;;;;28.27;5.53;;;26.50;53.30;;;;;;5036800;28;20622;-65
2023/07/25 00:11:13;;;;;;;26.70;5.30;;;26.50;53.30;;;;;;5027787;28;20189;-64
2023/07/25 00:13:40;;;;;;;27.00;5.17;;;26.50;53.30;;;;;;5027439;28;20205;-67
2023/07/25 00:16:08;;;;;;;24.57;5.07;;;26.50;53.30;;;;;;5027235;28;20225;-64
2023/07/25 00:18:35;;;;;;;23.90;4.73;;;26.50;53.30;;;;;;5026260;28;20213;-64
2023/07/25 00:21:02;;;;;;;22.30;4.80;;;26.60;53.40;;;;;;5027302;28;20573;-65
2023/07/25 00:23:29;;;;;;;25.97;5.27;;;26.50;53.30;;;;;;5026470;28;20208;-65
2023/07/25 00:25:56;;;;;;;24.33;5.13;;;26.50;53.30;;;;;;5026849;28;20213;-64
2023/07/25 00:28:23;;;;;;;28.40;5.57;;;26.50;53.30;;;;;;5043767;28;20211;-65
2023/07/25 00:30:50;;;;;;;30.70;5.37;;;26.50;53.30;;;;;;5031466;28;20201;-70
2023/07/25 00:33:18;;;;;;;27.60;5.23;;;26.60;53.40;;;;;;5026150;28;20215;-69
2023/07/25 00:35:52;;;;;;;29.57;5.63;;;26.50;53.30;;;;;;5026954;28;20296;-65
2023/07/25 00:38:18;;;;;;;30.40;5.90;;;26.50;53.30;;;;;;5026901;28;20197;-67
2023/07/25 00:40:46;;;;;;;29.97;5.50;;;26.50;53.30;;;;;;5025930;28;20209;-67
2023/07/25 00:43:13;;;;;;;33.10;5.77;;;26.50;53.30;;;;;;5026138;28;20240;-67
2023/07/25 00:45:40;;;;;;;29.67;5.67;;;26.50;53.30;;;;;;5026743;28;20258;-67
2023/07/25 00:48:07;;;;;;;27.17;5.13;;;26.50;53.30;;;;;;5026875;28;20205;-66
2023/07/25 00:50:36;;;;;;;35.33;5.87;;;26.50;53.30;;;;;;5026166;28;20224;-65
2023/07/25 00:53:04;;;;;;;39.03;6.23;;;26.50;53.30;;;;;;5026653;28;20204;-65
2023/07/25 00:55:31;;;;;;;28.00;5.30;;;26.50;53.30;;;;;;5040092;28;20755;-65
2023/07/25 00:57:58;;;;;;;28.17;5.20;;;26.50;53.30;;;;;;5045659;28;20208;-66
2023/07/25 01:00:25;;;;;;;25.47;5.00;;;26.60;53.30;;;;;;5046426;28;20192;-65
2023/07/25 01:02:52;;;;;;;32.33;5.83;;;26.50;53.30;;;;;;5047004;28;20232;-65
2023/07/25 01:05:19;;;;;;;43.17;6.70;;;26.50;53.30;;;;;;5045398;28;20661;-66
2023/07/25 01:07:48;;;;;;;28.33;5.63;;;26.50;53.30;;;;;;5020437;28;20205;-65
2023/07/25 01:10:16;;;;;;;24.23;5.13;;;26.50;53.30;;;;;;5026312;28;20231;-68
2023/07/25 01:12:42;;;;;;;27.87;5.40;;;26.50;53.30;;;;;;5026077;28;20227;-64
2023/07/25 01:15:10;;;;;;;28.47;5.40;;;26.50;53.30;;;;;;5026372;28;20559;-66
2023/07/25 01:17:37;;;;;;;24.73;5.03;;;26.50;53.30;;;;;;5026376;28;20228;-64
2023/07/25 01:20:06;;;;;;;41.80;6.43;;;26.50;53.20;;;;;;5029368;28;20628;-65
2023/07/25 01:22:37;;;;;;;25.27;5.07;;;26.50;53.30;;;;;;5037306;28;20225;-65
2023/07/25 01:25:07;;;;;;;31.90;5.47;;;26.50;53.30;;;;;;5025631;28;20215;-64
2023/07/25 01:27:34;;;;;;;19.30;4.73;;;26.50;53.20;;;;;;5026200;28;20205;-64
2023/07/25 01:30:02;;;;;;;19.50;4.60;;;26.50;53.20;;;;;;5025500;28;20306;-64
2023/07/25 01:32:30;;;;;;;46.87;7.00;;;26.50;53.20;;;;;;5027280;28;20201;-67
2023/07/25 01:34:57;;;;;;;27.03;5.17;;;26.50;53.30;;;;;;5045677;28;20227;-68
2023/07/25 01:37:24;;;;;;;32.67;5.93;;;26.50;53.20;;;;;;5035237;28;20209;-65
2023/07/25 01:39:51;;;;;;;35.53;6.03;;;26.50;53.30;;;;;;5075774;27;20207;-65
2023/07/25 01:42:19;;;;;;;22.40;4.57;;;26.50;53.30;;;;;;5045922;28;20232;-65
2023/07/25 01:44:46;;;;;;;31.87;5.60;;;26.50;53.20;;;;;;5028142;28;20205;-64
2023/07/25 01:47:13;;;;;;;29.23;5.80;;;26.50;53.20;;;;;;5025828;28;20212;-69
2023/07/25 01:49:40;;;;;;;53.93;7.70;;;26.50;53.30;;;;;;5024483;28;20254;-65
2023/07/25 01:52:08;;;;;;;28.00;5.40;;;26.50;53.20;;;;;;5006450;28;20197;-65
2023/07/25 01:54:34;;;;;;;26.20;5.07;;;26.50;53.30;;;;;;5018633;28;20201;-68
2023/07/25 01:57:01;;;;;;;27.53;5.10;;;26.50;53.20;;;;;;5037430;28;20195;-64
2023/07/25 01:59:29;;;;;;;24.43;5.07;;;26.50;53.20;;;;;;5025871;28;20659;-65
2023/07/25 02:01:56;;;;;;;24.23;4.73;;;26.50;53.20;;;;;;5026262;28;20229;-65
2023/07/25 02:04:23;;;;;;;39.97;6.67;;;26.50;53.20;;;;;;5025747;28;20206;-64
2023/07/25 02:06:50;;;;;;;30.20;5.23;;;26.50;53.20;;;;;;5025996;28;20621;-66
2023/07/25 02:09:17;;;;;;;23.03;4.87;;;26.50;53.30;;;;;;5025284;28;20272;-66
2023/07/25 02:11:44;;;;;;;27.67;5.30;;;26.50;53.20;;;;;;5034126;28;20211;-68
2023/07/25 02:14:10;;;;;;;26.27;5.40;;;26.50;53.30;;;;;;5044875;28;20640;-65
2023/07/25 02:16:40;;;;;;;39.83;6.23;;;26.50;53.20;;;;;;5021028;28;20225;-64
2023/07/25 02:19:07;;;;;;;31.10;5.70;;;26.50;53.20;;;;;;5028856;28;20289;-69
2023/07/25 02:21:34;;;;;;;33.17;5.73;;;26.50;53.30;;;;;;5024754;28;21085;-65
2023/07/25 02:24:01;;;;;;;22.70;4.90;;;26.50;53.20;;;;;;5031404;28;20233;-65
2023/07/25 02:26:27;;;;;;;44.10;6.63;;;26.50;53.20;;;;;;5024409;28;20205;-64
2023/07/25 02:28:54;;;;;;;27.87;5.17;;;26.50;53.20;;;;;;5025207;28;20208;-64
2023/07/25 02:31:21;;;;;;;30.37;5.63;;;26.50;53.20;;;;;;5024432;28;20580;-66
2023/07/25 02:33:49;;;;;;;20.40;4.57;;;26.50;53.20;;;;;;5024401;28;20209;-65
2023/07/25 02:36:16;;;;;;;24.17;5.00;;;26.50;53.30;;;;;;5024253;28;20288;-64
2023/07/25 02:38:43;;;;;;;32.37;5.47;;;26.50;53.20;;;;;;5040149;28;20184;-64
2023/07/25 02:41:10;;;;;;;25.17;4.97;;;26.40;53.20;;;;;;5044020;28;20199;-64
2023/07/25 02:43:37;;;;;;;32.63;5.73;;;26.40;53.20;;;;;;5025606;28;20240;-65
2023/07/25 02:46:04;;;;;;;29.47;5.57;;;26.40;53.20;;;;;;5029152;28;20207;-64
2023/07/25 02:48:31;;;;;;;33.57;5.80;;;26.40;53.30;;;;;;5044966;28;20232;-65
2023/07/25 02:50:59;;;;;;;21.53;4.67;;;26.40;53.20;;;;;;5044583;28;20676;-64
2023/07/25 02:53:26;;;;;;;28.27;5.27;;;26.40;53.20;;;;;;5030606;28;20228;-65
2023/07/25 02:55:53;;;;;;;27.47;5.23;;;26.40;53.20;;;;;;5045361;28;20211;-65
2023/07/25 02:58:20;;;;;;;27.73;5.43;;;26.40;53.20;;;;;;5044792;28;20619;-64
2023/07/25 03:00:48;;;;;;;28.80;5.50;;;26.40;53.30;;;;;;5040189;28;20212;-65
2023/07/25 03:03:15;;;;;;;25.60;5.13;;;26.40;53.20;;;;;;5044852;28;20227;-64
2023/07/25 03:05:42;;;;;;;29.73;5.70;;;26.40;53.20;;;;;;5045005;28;20556;-65
2023/07/25 03:08:10;;;;;;;17.93;4.33;;;26.40;53.20;;;;;;5044737;28;20211;-68
2023/07/25 03:10:37;;;;;;;35.07;6.37;;;26.40;53.20;;;;;;5044807;28;20215;-69
2023/07/25 03:13:04;;;;;;;33.23;6.17;;;26.40;53.20;;;;;;5045120;28;20200;-64
2023/07/25 03:15:31;;;;;;;27.20;4.90;;;26.40;53.30;;;;;;5040005;28;20200;-65
2023/07/25 03:17:57;;;;;;;51.27;7.23;;;26.40;53.20;;;;;;5040587;28;20234;-66
2023/07/25 03:20:24;;;;;;;31.30;5.70;;;26.40;53.20;;;;;;5023741;28;20673;-65
2023/07/25 03:22:51;;;;;;;30.77;5.40;;;26.40;53.30;;;;;;5044646;28;20229;-64
2023/07/25 03:25:19;;;;;;;21.30;4.60;;;26.40;53.30;;;;;;5047834;28;20694;-67
2023/07/25 03:27:46;;;;;;;21.90;4.43;;;26.40;53.20;;;;;;5047934;28;20204;-65
2023/07/25 03:30:13;;;;;;;30.77;5.43;;;26.40;53.20;;;;;;5047996;28;20207;-65
2023/07/25 03:32:40;;;;;;;28.90;5.57;;;26.40;53.20;;;;;;5048355;28;20196;-66
2023/07/25 03:35:09;;;;;;;22.80;4.90;;;26.40;53.20;;;;;;5047201;27;20214;-67
2023/07/25 03:37:36;;;;;;;20.63;4.50;;;26.40;53.20;;;;;;5072498;27;20201;-69
2023/07/25 03:40:03;;;;;;;24.70;5.00;;;26.40;53.30;;;;;;5132490;27;20208;-65
2023/07/25 03:42:31;;;;;;;24.13;5.23;;;26.40;53.20;;;;;;5132448;27;20217;-68
2023/07/25 03:44:58;;;;;;;47.77;6.70;;;26.40;53.20;;;;;;5083215;27;20570;-67
2023/07/25 03:47:25;;;;;;;30.07;5.63;;;26.30;53.20;;;;;;5037099;27;20209;-69
2023/07/25 03:49:52;;;;;;;36.73;6.07;;;26.40;53.20;;;;;;5027775;28;20227;-67
2023/07/25 03:52:18;;;;;;;28.13;5.40;;;26.30;53.20;;;;;;5028312;28;20209;-69
2023/07/25 03:54:46;;;;;;;24.10;4.80;;;26.40;53.30;;;;;;5027478;28;20246;-68
2023/07/25 03:57:12;;;;;;;31.70;5.90;;;26.30;53.20;;;;;;5027620;28;20215;-67
2023/07/25 03:59:41;;;;;;;33.37;5.77;;;26.40;53.30;;;;;;5027261;28;20205;-69
2023/07/25 04:02:07;;;;;;;29.97;5.37;;;26.30;53.20;;;;;;5027562;28;20212;-69
2023/07/25 04:04:34;;;;;;;29.37;5.70;;;26.30;53.20;;;;;;5027530;28;20240;-68
2023/07/25 04:07:01;;;;;;;31.13;5.77;;;26.30;53.20;;;;;;5027508;28;20601;-70
2023/07/25 04:09:28;;;;;;;28.00;5.27;;;26.30;53.20;;;;;;5027935;28;20298;-68
2023/07/25 04:11:55;;;;;;;26.67;5.20;;;26.30;53.30;;;;;;5027465;28;20212;-69
2023/07/25 04:14:22;;;;;;;34.67;5.77;;;26.30;53.30;;;;;;5027562;28;21889;-70
2023/07/25 04:16:50;;;;;;;28.07;5.33;;;26.30;53.30;;;;;;5039389;28;20394;-70
2023/07/25 04:19:17;;;;;;;20.70;5.00;;;26.30;53.30;;;;;;5026954;28;20209;-65
2023/07/25 04:21:43;;;;;;;27.13;5.37;;;26.30;53.20;;;;;;5027023;28;20208;-64
2023/07/25 04:24:10;;;;;;;20.10;4.50;;;26.30;53.30;;;;;;5027297;28;20227;-64
2023/07/25 04:26:37;;;;;;;24.60;5.00;;;26.30;53.30;;;;;;5025131;28;20208;-64
2023/07/25 04:29:04;;;;;;;27.50;5.23;;;26.30;53.30;;;;;;5027089;28;20185;-64
2023/07/25 04:31:31;;;;;;;23.50;5.17;;;26.30;53.20;;;;;;5029220;27;20205;-64
2023/07/25 04:33:59;;;;;;;30.03;5.57;;;26.30;53.30;;;;;;5029021;28;20214;-64
2023/07/25 04:36:28;;;;;;;19.17;4.33;;;26.30;53.30;;;;;;5035033;28;20956;-66
2023/07/25 04:38:56;;;;;;;36.50;6.30;;;26.30;53.30;;;;;;5028566;28;20288;-65
2023/07/25 04:41:23;;;;;;;23.90;4.80;;;26.30;53.30;;;;;;5027778;28;20207;-65
2023/07/25 04:43:50;;;;;;;18.60;4.10;;;26.30;53.30;;;;;;5027936;28;20220;-64
2023/07/25 04:46:16;;;;;;;26.37;5.30;;;26.30;53.30;;;;;;5041401;28;20191;-66
2023/07/25 04:48:43;;;;;;;22.73;4.90;;;26.30;53.20;;;;;;5037559;28;20200;-64
2023/07/25 04:51:12;;;;;;;33.70;5.73;;;26.30;53.30;;;;;;5026330;28;20220;-64
2023/07/25 04:53:39;;;;;;;33.57;6.20;;;26.30;53.30;;;;;;5042741;28;20703;-63
2023/07/25 04:56:05;;;;;;;36.60;6.03;;;26.30;53.30;;;;;;5031789;28;20198;-63
2023/07/25 04:58:32;;;;;;;23.77;4.80;;;26.30;53.30;;;;;;5026128;28;20201;-65
2023/07/25 05:00:59;;;;;;;41.80;6.43;;;26.30;53.30;;;;;;5024686;28;20205;-65
2023/07/25 05:03:26;;;;;;;31.23;5.40;;;26.30;53.30;;;;;;5022042;28;20229;-67
2023/07/25 05:05:56;;;;;;;31.53;5.47;;;26.30;53.30;;;;;;5043073;28;20212;-64
2023/07/25 05:08:24;;;;;;;32.37;5.90;;;26.30;53.30;;;;;;5039246;28;20285;-65
2023/07/25 05:10:52;;;;;;;26.50;5.13;;;26.30;53.20;;;;;;5026608;27;20212;-64
2023/07/25 05:13:20;;;;;;;26.70;5.10;;;26.30;53.30;;;;;;5026544;28;20392;-65
2023/07/25 05:15:47;;;;;;;45.67;7.07;;;26.30;53.30;;;;;;5030942;28;20287;-64
2023/07/25 05:18:14;;;;;;;50.63;7.87;;;26.30;53.30;;;;;;5021586;28;20196;-64
2023/07/25 05:20:41;;;;;;;37.83;6.33;;;26.30;53.30;;;;;;5024796;28;20204;-65
2023/07/25 05:23:09;;;;;;;28.27;5.57;;;26.30;53.40;;;;;;5041480;28;20224;-69
2023/07/25 05:25:38;;;;;;;24.13;5.07;;;26.30;53.30;;;;;;5036640;28;20212;-65
2023/07/25 05:28:05;;;;;;;29.80;5.60;;;26.30;53.30;;;;;;5026186;28;20200;-64
2023/07/25 05:30:32;;;;;;;28.27;5.83;;;26.30;53.30;;;;;;5045470;28;20653;-65
2023/07/25 05:32:59;;;;;;;25.77;5.33;;;26.30;53.30;;;;;;5036303;28;20208;-64
2023/07/25 05:35:26;;;;;;;25.87;5.53;;;26.30;53.30;;;;;;5025246;28;20211;-64
2023/07/25 05:37:53;;;;;;;32.13;5.83;;;26.30;53.30;;;;;;5026296;28;20660;-65
2023/07/25 05:40:19;;;;;;;40.20;6.77;;;26.30;53.30;;;;;;5028326;28;20196;-62
2023/07/25 05:42:48;;;;;;;27.07;5.40;;;26.40;53.30;;;;;;5021651;28;20197;-61
2023/07/25 05:45:15;;;;;;;27.80;5.57;;;26.30;53.30;;;;;;5018501;28;20561;-62
2023/07/25 05:47:42;;;;;;;28.57;5.43;;;26.30;53.30;;;;;;5025791;28;20207;-62
2023/07/25 05:50:10;;;;;;;27.03;5.80;;;26.30;53.30;;;;;;5025266;28;20205;-62
2023/07/25 05:52:37;;;;;;;31.43;5.73;;;26.30;53.30;;;;;;5027100;28;20821;-64
2023/07/25 05:55:04;;;;;;;31.67;5.57;;;26.30;53.30;;;;;;5030798;28;20271;-63
2023/07/25 05:57:31;;;;;;;50.70;7.93;;;26.30;53.30;;;;;;5022385;28;20204;-65
2023/07/25 05:59:59;;;;;;;18.07;4.63;;;26.30;53.30;;;;;;5023725;28;20595;-67
2023/07/25 06:02:26;;;;;;;36.13;6.07;;;26.30;53.30;;;;;;5024247;27;20649;-67
2023/07/25 06:04:53;;;;;;;24.93;4.97;;;26.30;53.30;;;;;;5025157;28;20224;-66
2023/07/25 06:07:20;;;;;;;23.50;4.93;;;26.30;53.30;;;;;;5029948;28;20188;-66
2023/07/25 06:09:47;;;;;;;43.83;7.03;;;26.30;53.30;;;;;;5024840;27;20848;-66
2023/07/25 06:12:14;;;;;;;21.13;5.03;;;26.30;53.40;;;;;;5023385;28;20240;-67
2023/07/25 06:14:40;;;;;;;24.47;5.13;;;26.30;53.30;;;;;;5024744;28;20200;-66
2023/07/25 06:17:09;;;;;;;21.57;4.93;;;26.30;53.30;;;;;;5024250;28;20223;-67
2023/07/25 06:19:35;;;;;;;42.40;6.80;;;26.30;53.30;;;;;;5023678;28;20662;-66
2023/07/25 06:22:03;;;;;;;30.23;5.47;;;26.30;53.30;;;;;;5023781;28;21592;-66
2023/07/25 06:24:29;;;;;;;38.37;6.17;;;26.30;53.30;;;;;;5026808;28;20240;-68
2023/07/25 06:26:56;;;;;;;33.37;5.97;;;26.30;53.30;;;;;;5040404;28;20202;-66
2023/07/25 06:29:23;;;;;;;25.73;5.30;;;26.30;53.30;;;;;;5023854;28;20216;-68
2023/07/25 06:31:50;;;;;;;27.73;5.23;;;26.30;53.30;;;;;;5023736;28;20208;-68
2023/07/25 06:34:18;;;;;;;38.20;6.13;;;26.30;53.30;;;;;;5024660;28;20197;-65
2023/07/25 06:36:45;;;;;;;58.40;8.50;;;26.30;53.30;;;;;;5018871;28;20205;-67
2023/07/25 06:39:12;;;;;;;21.30;4.57;;;26.30;53.30;;;;;;5022517;28;20197;-65
2023/07/25 06:41:39;;;;;;;22.97;5.00;;;26.30;53.30;;;;;;5025261;28;20205;-65
2023/07/25 06:44:06;;;;;;;40.70;6.57;;;26.40;53.30;;;;;;5024719;28;20219;-65
2023/07/25 06:46:33;;;;;;;42.17;6.93;;;26.40;53.30;;;;;;5032107;28;20201;-65
2023/07/25 06:48:59;;;;;;;21.60;4.73;;;26.40;53.30;;;;;;5023191;28;20197;-65
2023/07/25 06:51:28;;;;;;;26.23;5.70;;;26.40;53.20;;;;;;5023665;28;20209;-66
2023/07/25 06:53:54;;;;;;;28.53;5.73;;;26.40;53.20;;;;;;5026839;28;20659;-66
2023/07/25 06:56:21;;;;;;;32.20;5.93;;;26.40;53.20;;;;;;5031029;28;20204;-68
2023/07/25 06:58:48;;;;;;;63.20;8.67;;;26.40;53.10;;;;;;5021761;28;20205;-66
2023/07/25 07:01:15;;;;;;;61.80;8.30;;;26.40;53.10;;;;;;5022353;28;20204;-66
2023/07/25 07:03:42;;;;;;;37.17;6.23;;;26.30;53.00;;;;;;5019312;28;20229;-66
2023/07/25 07:06:09;;;;;;;30.33;6.03;;;26.30;52.90;;;;;;5015910;28;20200;-69
2023/07/25 07:08:37;;;;;;;32.40;5.73;;;26.30;52.80;;;;;;5024276;28;20201;-65
2023/07/25 07:11:04;;;;;;;48.17;7.30;;;26.30;52.80;;;;;;5021422;28;20307;-67
2023/07/25 07:13:31;;;;;;;22.03;5.23;;;26.30;52.80;;;;;;5019956;28;20201;-67
2023/07/25 07:15:58;;;;;;;29.13;5.93;;;26.30;52.70;;;;;;5019293;28;20216;-65
2023/07/25 07:18:25;;;;;;;29.73;5.97;;;26.30;52.70;;;;;;5018617;28;20902;-65
2023/07/25 07:20:52;;;;;;;56.53;7.73;;;26.30;53.30;;;;;;5020799;28;20193;-65
2023/07/25 07:23:19;;;;;;;36.43;5.97;;;26.30;52.60;;;;;;5018728;28;20657;-65
2023/07/25 07:25:47;;;;;;;49.23;7.93;;;26.20;52.60;;;;;;5021510;28;20212;-64
2023/07/25 07:28:14;;;;;;;54.13;7.73;;;26.20;52.60;;;;;;5022885;28;20201;-63
2023/07/25 07:30:41;;;;;;;25.47;5.40;;;26.20;52.60;;;;;;5025483;28;20216;-64
2023/07/25 07:33:08;;;;;;;30.27;5.63;;;26.20;52.60;;;;;;5024696;28;20204;-68
2023/07/25 07:35:35;;;;;;;32.17;6.47;;;26.20;52.60;;;;;;5024235;27;20261;-70
2023/07/25 07:38:02;;;;;;;27.73;5.30;;;26.10;52.60;;;;;;5024490;28;20295;-66
2023/07/25 07:40:29;;;;;;;20.53;4.93;;;26.10;52.60;;;;;;5031220;28;20204;-65
2023/07/25 07:42:57;;;;;;;69.60;9.17;;;26.10;52.60;;;;;;5019730;28;20205;-67
2023/07/25 07:45:25;;;;;;;35.33;6.03;;;26.10;52.70;;;;;;5027387;28;20240;-68
2023/07/25 07:47:52;;;;;;;26.27;5.37;;;26.10;52.70;;;;;;5024455;28;20193;-70
2023/07/25 07:50:19;;;;;;;24.70;5.73;;;26.10;52.70;;;;;;5025112;28;20220;-70
2023/07/25 07:52:46;;;;;;;35.33;6.47;;;26.10;52.70;;;;;;5023785;28;20205;-69
2023/07/25 07:55:14;;;;;;;45.63;7.13;;;26.10;52.80;;;;;;5021743;28;20212;-73
2023/07/25 07:57:41;;;;;;;43.03;6.80;;;26.10;52.90;;;;;;5022245;28;20680;-67
2023/07/25 08:00:13;;;;;;;46.67;7.07;;;26.10;52.80;;;;;;5022604;28;20197;-66
2023/07/25 08:02:41;;;;;;;31.53;6.07;;;26.10;52.70;;;;;;5021573;28;20220;-67
2023/07/25 08:05:09;;;;;;;28.43;5.23;;;26.10;52.60;;;;;;5024090;28;20232;-66
2023/07/25 08:07:36;;;;;;;36.00;5.87;;;26.10;52.50;;;;;;5024614;28;20228;-65
2023/07/25 08:10:03;;;;;;;31.77;5.73;;;26.10;52.50;;;;;;5023283;28;20544;-66
2023/07/25 08:12:31;;;;;;;37.27;6.20;;;26.10;52.50;;;;;;5027855;28;20205;-72
2023/07/25 08:14:58;;;;;;;32.13;5.70;;;26.10;52.50;;;;;;5046876;28;20291;-67
2023/07/25 08:17:26;;;;;;;23.70;4.83;;;26.10;52.40;;;;;;5047023;28;21034;-69
2023/07/25 08:19:53;;;;;;;37.27;6.40;;;26.10;52.40;;;;;;5046632;28;20215;-67
2023/07/25 08:22:20;;;;;;;20.73;4.77;;;26.10;52.30;;;;;;5040363;28;20197;-67
2023/07/25 08:24:47;;;;;;;28.20;5.63;;;26.10;52.40;;;;;;5026595;28;20233;-65
2023/07/25 08:27:14;;;;;;;36.30;6.27;;;26.10;52.50;;;;;;5027172;28;20201;-66
2023/07/25 08:29:43;;;;;;;23.80;5.30;;;26.10;52.50;;;;;;5025654;28;20212;-66
2023/07/25 08:32:10;;;;;;;32.87;6.07;;;26.10;52.40;;;;;;5039570;28;20668;-66
2023/07/25 08:34:39;;;;;;;30.60;5.23;;;26.10;52.40;;;;;;5031920;28;20208;-66
2023/07/25 08:37:07;;;;;;;31.43;5.80;;;26.10;52.40;;;;;;5047041;28;20226;-66
2023/07/25 08:39:34;;;;;;;25.73;5.33;;;26.10;52.50;;;;;;5047014;28;20210;-66
2023/07/25 08:42:05;;;;;;;37.40;6.17;;;26.10;52.50;;;;;;5047144;28;20205;-65
2023/07/25 08:44:34;;;;;;;20.40;4.50;;;26.10;52.50;;;;;;5047286;28;20219;-66
2023/07/25 08:47:06;;;;;;;42.67;6.97;;;26.10;52.40;;;;;;5039289;28;20205;-65
2023/07/25 08:49:36;;;;;;;41.23;6.40;;;26.10;52.40;;;;;;5021916;28;20213;-72
2023/07/25 08:52:05;;;;;;;23.43;5.00;;;26.10;52.40;;;;;;5025810;27;20956;-66
2023/07/25 08:54:34;;;;;;;29.33;5.37;;;26.20;52.30;;;;;;5025781;28;20205;-65
2023/07/25 08:57:01;;;;;;;19.43;4.60;;;26.20;52.30;;;;;;5026884;28;20197;-68
2023/07/25 08:59:29;;;;;;;23.47;5.07;;;26.20;52.40;;;;;;5026397;28;20208;-65
2023/07/25 09:01:56;;;;;;;19.90;4.57;;;26.20;52.30;;;;;;5028179;28;20206;-67
2023/07/25 09:04:25;;;;;;;32.87;5.60;;;26.20;52.40;;;;;;5026386;28;20223;-68
2023/07/25 09:06:52;;;;;;;46.23;7.83;;;26.20;52.40;;;;;;5027236;28;20201;-72
2023/07/25 09:09:20;;;;;;;29.00;5.30;;;26.20;52.60;;;;;;5019455;28;20224;-64
2023/07/25 09:11:47;;;;;;;33.07;5.63;;;26.30;53.00;;;;;;5021436;28;20199;-72
2023/07/25 09:14:14;;;;;;;25.20;5.20;;;26.30;52.80;;;;;;5039303;28;20201;-74
2023/07/25 09:16:41;;;;;;;37.77;5.80;;;26.30;52.70;;;;;;5025829;28;20228;-73
2023/07/25 09:19:08;;;;;;;25.67;4.93;;;26.30;52.80;;;;;;5026149;28;20288;-73
2023/07/25 09:21:47;;;;;;;25.30;5.20;;;26.30;52.80;;;;;;5026141;28;20211;-71
2023/07/25 09:24:14;;;;;;;26.13;5.10;;;26.40;53.10;;;;;;5025902;28;20213;-71
2023/07/25 09:26:48;;;;;;;41.63;6.63;;;26.40;53.10;;;;;;5015883;28;20208;-73
2023/07/25 09:29:17;;;;;;;57.07;7.87;;;26.40;53.10;;;;;;5025149;28;20200;-78
2023/07/25 09:31:45;;;;;;;63.33;8.30;;;26.50;53.20;;;;;;5015389;28;20193;-70
2023/07/25 09:34:16;;;;;;;36.93;6.30;;;26.50;53.20;;;;;;5025654;28;20571;-70
2023/07/25 09:36:46;;;;;;;28.83;5.43;;;26.50;53.20;;;;;;5022440;28;20210;-71
2023/07/25 09:39:13;;;;;;;25.23;4.90;;;26.60;53.20;;;;;;5039230;28;20285;-71
2023/07/25 09:41:42;;;;;;;37.83;6.07;;;26.60;53.20;;;;;;5025424;28;20207;-73
2023/07/25 09:44:10;;;;;;;25.17;5.23;;;26.70;53.30;;;;;;5025210;28;20205;-69
2023/07/25 09:46:37;;;;;;;35.30;6.03;;;26.70;53.30;;;;;;5025530;28;20209;-73
2023/07/25 09:49:04;;;;;;;27.97;5.13;;;26.70;53.30;;;;;;5026232;28;20203;-65
2023/07/25 09:51:31;;;;;;;48.07;7.17;;;26.80;53.30;;;;;;5030376;27;20213;-67
2023/07/25 09:53:58;;;;;;;29.33;5.60;;;26.80;53.10;;;;;;5028047;28;20203;-67
2023/07/25 09:56:27;;;;;;;40.87;6.47;;;26.90;52.90;;;;;;5034911;28;20220;-71
2023/07/25 09:58:55;;;;;;;32.47;5.63;;;26.90;52.80;;;;;;5020993;28;20542;-69
2023/07/25 10:01:22;;;;;;;42.87;6.50;;;26.90;53.00;;;;;;5023856;28;20751;-69
2023/07/25 10:03:50;;;;;;;22.50;4.83;;;27.00;53.00;;;;;;5025944;27;20197;-68
2023/07/25 10:06:18;;;;;;;22.20;5.03;;;27.00;53.10;;;;;;5025021;28;20259;-69
2023/07/25 10:08:45;;;;;;;26.63;5.57;;;27.10;53.10;;;;;;5027613;28;20661;-68
2023/07/25 10:11:13;;;;;;;25.50;4.87;;;27.10;53.10;;;;;;5019196;28;20269;-69
2023/07/25 10:13:41;;;;;;;30.27;5.80;;;27.20;53.20;;;;;;5028661;28;20204;-68
2023/07/25 10:16:14;;;;;;;25.13;5.23;;;27.20;53.00;;;;;;5024769;28;20221;-69
2023/07/25 10:18:41;;;;;;;33.43;5.53;;;27.30;52.70;;;;;;5034061;28;20280;-68
2023/07/25 10:21:09;;;;;;;36.17;6.77;;;27.30;52.40;;;;;;5036068;28;20204;-68
2023/07/25 10:23:36;;;;;;;41.00;7.93;;;27.40;52.20;;;;;;5023197;27;20206;-69
2023/07/25 10:26:13;;;;;;;27.07;7.07;;;27.40;51.70;;;;;;5025417;28;20278;-73
2023/07/25 10:28:40;;;;;;;33.87;6.20;;;27.40;51.10;;;;;;5015672;28;20204;-69
2023/07/25 10:31:07;;;;;;;24.63;5.40;;;27.40;51.20;;;;;;5055830;27;20641;-69
2023/07/25 10:33:39;;;;;;;28.57;5.83;;;27.40;51.10;;;;;;5100284;27;20207;-70
2023/07/25 10:36:06;;;;;;;25.73;5.20;;;27.50;50.90;;;;;;5010155;28;20208;-69
2023/07/25 10:38:35;;;;;;;26.80;5.43;;;27.50;50.90;;;;;;5022672;28;20340;-69
2023/07/25 10:41:11;;;;;;;29.50;5.37;;;27.60;50.80;;;;;;5019966;28;20660;-69
2023/07/25 10:44:00;;;;;;;27.87;5.43;;;27.60;50.70;;;;;;5024227;28;20279;-71
2023/07/25 10:46:29;;;;;;;19.93;4.63;;;27.60;50.80;;;;;;5024574;28;20227;-69
2023/07/25 10:49:00;;;;;;;33.93;5.73;;;27.60;51.00;;;;;;5024129;28;20208;-73
2023/07/25 10:51:49;;;;;;;27.53;5.40;;;27.70;51.00;;;;;;5024588;28;20212;-70
2023/07/25 10:54:18;;;;;;;23.17;4.80;;;27.70;50.90;;;;;;5023052;27;20288;-67
2023/07/25 10:57:13;;;;;;;35.00;6.30;;;27.80;51.10;;;;;;5017737;28;20206;-67
2023/07/25 10:59:58;;;;;;;29.40;5.43;;;27.80;50.70;;;;;;5037773;28;20236;-67
2023/07/25 11:02:30;;;;;;;33.00;5.63;;;27.90;51.20;;;;;;5042371;28;20257;-68
2023/07/25 11:05:25;;;;;;;24.07;4.77;;;28.00;51.40;;;;;;5031921;28;20311;-69
2023/07/25 11:07:54;;;;;;;28.63;5.40;;;28.00;51.40;;;;;;5024663;28;20212;-68
2023/07/25 11:10:23;;;;;;;24.77;5.33;;;28.10;51.50;;;;;;5035876;28;20700;-67
2023/07/25 11:12:52;;;;;;;32.00;5.37;;;28.20;51.60;;;;;;5031220;28;20198;-67
2023/07/25 11:15:19;;;;;;;19.10;4.57;;;28.30;51.60;;;;;;5027302;28;20253;-69
2023/07/25 11:17:46;;;;;;;22.03;4.77;;;28.40;51.70;;;;;;5038397;28;20220;-67
2023/07/25 11:20:15;;;;;;;32.77;5.53;;;28.60;51.80;;;;;;5031469;28;20207;-69
2023/07/25 11:22:44;;;;;;;23.43;4.70;;;28.70;51.80;;;;;;5030280;28;21123;-76
2023/07/25 11:25:12;;;;;;;29.53;5.23;;;28.90;51.90;;;;;;5029873;28;20692;-73
2023/07/25 11:27:42;;;;;;;48.23;7.27;;;29.10;52.00;;;;;;5014181;28;20266;-74
2023/07/25 11:30:14;;;;;;;23.50;4.87;;;29.20;52.10;;;;;;5044380;28;20200;-77
2023/07/25 11:32:47;;;;;;;42.17;6.80;;;29.40;52.00;;;;;;5034514;28;20578;-76
2023/07/25 11:35:15;;;;;;;26.20;5.07;;;29.50;51.90;;;;;;5044412;28;20650;-72
2023/07/25 11:37:44;;;;;;;46.90;7.17;;;29.70;52.00;;;;;;5043425;28;20287;-71
2023/07/25 11:40:15;;;;;;;22.37;4.53;;;29.90;52.00;;;;;;5044494;28;20208;-68
2023/07/25 11:42:44;;;;;;;34.77;6.00;;;30.00;52.00;;;;;;5041935;28;20297;-69
2023/07/25 11:45:12;;;;;;;25.17;5.17;;;30.30;52.70;;;;;;5046001;28;20224;-69
2023/07/25 11:47:40;;;;;;;27.83;5.13;;;30.40;51.80;;;;;;5042700;28;20208;-69
2023/07/25 11:50:08;;;;;;;26.27;5.27;;;30.50;51.60;;;;;;5048049;28;20218;-68
2023/07/25 11:52:35;;;;;;;17.97;4.40;;;30.70;52.20;;;;;;5046766;28;20568;-69
2023/07/25 11:55:05;;;;;;;18.30;4.30;;;30.80;51.40;;;;;;5048024;28;20204;-69
2023/07/25 11:57:32;;;;;;;30.23;5.83;;;30.90;51.40;;;;;;5044705;28;20252;-70
2023/07/25 12:00:00;;;;;;;25.45;4.97;;;31.10;51.40;;;;;;5040213;28;20201;-68
2023/07/25 12:02:27;;;;;;;23.30;4.90;;;31.20;51.30;;;;;;5046423;27;20196;-69
2023/07/25 12:04:55;;;;;;;33.08;5.78;;;31.40;51.30;;;;;;5047509;28;20199;-68
2023/07/25 12:07:22;;;;;;;28.83;5.53;;;31.50;51.20;;;;;;5037026;28;21809;-68
2023/07/25 12:09:53;;;;;;;22.70;5.05;;;31.60;51.10;;;;;;5047737;28;20211;-69
2023/07/25 12:12:22;;;;;;;58.50;7.88;;;31.80;50.90;;;;;;5046069;28;20208;-68
2023/07/25 12:15:00;;;;;;;33.80;5.80;;;32.00;50.90;;;;;;5045526;28;20278;-69
2023/07/25 12:17:43;;;;;;;35.38;5.78;;;32.20;50.60;;;;;;5023170;28;20899;-71
2023/07/25 12:20:14;;;;;;;43.42;6.45;;;32.20;49.90;;;;;;5006534;28;20201;-69
2023/07/25 12:22:41;;;;;;;24.30;4.93;;;32.50;50.00;;;;;;5017118;28;20246;-69
2023/07/25 12:25:09;;;;;;;34.42;6.00;;;32.50;49.80;;;;;;5047084;28;20193;-72
2023/07/25 12:27:45;;;;;;;21.33;4.53;;;32.60;49.40;;;;;;5044489;28;20204;-70
2023/07/25 12:30:12;;;;;;;30.00;5.30;;;32.70;48.90;;;;;;5047117;28;20208;-69
2023/07/25 12:32:39;;;;;;;24.48;4.95;;;32.80;49.00;;;;;;5046082;28;20197;-69
2023/07/25 12:35:06;;;;;;;21.23;4.55;;;32.80;48.80;;;;;;5042156;28;20196;-70
2023/07/25 12:37:33;;;;;;;19.00;4.38;;;32.80;48.50;;;;;;5047278;28;20208;-71
2023/07/25 12:40:00;;;;;;;40.80;6.55;;;32.70;48.30;;;;;;5042039;28;20200;-69